Startpagina
METAR-TAF:

METAR-TAF

Vliegvelden :

Luchthaven Athene

Athene, Griekenland

breedte: 37-56N, lengte: 023-56E, hoogte: 94 m

Actueel weer

Dit bericht is 30 minuten geleden gemaakt, om 16:50 UTC
Wind 7 kt uit het noordoosten
Temperatuur 15°C
Vochtigheid 67%
Druk 1020 hPa
Zicht 10 km of meer
Weinig wolken op 3000 ft

METAR: LGAV 201650Z 04007KT 9999 FEW030 15/09 Q1020 NOSIG

Tijdstip: 19:20 (17:20 UTC)

Verwachting

Dit bericht is 6 uur en het 20 minuten geleden gemaakt, om 11:00 UTC
Verwachting geldig van 20 om 12 UTC tot 21 om 12 UTC
Wind 15 kt uit het noorden
Zicht 10 km of meer
Verspreide wolken op 2500 ft
Wijzigt naar
van 21 om 04 UTC tot 21 om 06 UTC
Wind 20 kt uit het noorden met uitschieters tot 30 kt

TAF: LGAV 201100Z 2012/2112 01015KT 9999 SCT025 BECMG 2104/2106 01020G30KT

Waarnemingen en weersverwachtingen van meer dan 4000 vliegvelden (METAR en TAF).

De beschikbare stations zijn de gele en rode punten op de kaart.

Ga met uw muis naar het station om de naam te zien.

Klik dan om waarnemingen en weersverwachtingen te zien.

kaart wijzigen: klik op de groene knoppen met een zwart kruis om in te zoomen, op de groene knop met een streepje om uit te zoomen of op de groene pijlen voor aangrenzende kaarten.


METAR-TAF: